| time (UTC) | temp F | wind direction | speed MPH | gust MPH | rain 1hr in | rain 24hr in | rain mn in | humidity % | barometer mb |
| 20260505022658 | 39 | 356 | 1.0 | 2.0 | 0.19 | 0.00 | 0.08 | 86 | 745.0 |
| 20260505022200 | 39 | 118 | 2.0 | 3.0 | 0.07 | 0.00 | 0.06 | 86 | 745.0 |
| 20260505021659 | 39 | 242 | 3.0 | 6.0 | 0.00 | 0.00 | 0.05 | 85 | 745.0 |
| 20260505021158 | 39 | 175 | 3.0 | 3.0 | 0.00 | 0.00 | 0.05 | 85 | 745.0 |
| 20260505020700 | 39 | 205 | 4.0 | 6.0 | 0.00 | 0.00 | 0.05 | 85 | 745.0 |
| 20260505020158 | 39 | 188 | 3.0 | 5.0 | 0.00 | 0.00 | 0.05 | 85 | 745.0 |
| 20260505015658 | 39 | 187 | 3.0 | 3.0 | 0.00 | 0.00 | 0.05 | 85 | 744.0 |
| 20260505015158 | 39 | 203 | 4.0 | 6.0 | 0.00 | 0.00 | 0.05 | 85 | 745.0 |
| 20260505014658 | 39 | 180 | 2.0 | 3.0 | 0.00 | 0.00 | 0.05 | 85 | 745.0 |
| 20260505014158 | 39 | 225 | 2.0 | 2.0 | 0.00 | 0.00 | 0.05 | 86 | 745.0 |
| 20260505013658 | 39 | 121 | 3.0 | 6.0 | 0.00 | 0.00 | 0.05 | 86 | 745.0 |
| 20260505013158 | 39 | 137 | 6.0 | 7.0 | 0.00 | 0.00 | 0.05 | 87 | 744.0 |
| 20260505012659 | 39 | 51 | 2.0 | 2.0 | 0.00 | 0.00 | 0.05 | 88 | 745.0 |
| 20260505011712 | 39 | 118 | 4.0 | 5.0 | 0.00 | 0.00 | 0.05 | 87 | 745.0 |
| 20260505011159 | 39 | 118 | 5.0 | 7.0 | 0.00 | 0.00 | 0.05 | 86 | 745.0 |
| 20260505010659 | 40 | 115 | 2.0 | 3.0 | 0.00 | 0.00 | 0.05 | 86 | 745.0 |
| 20260505010158 | 40 | 118 | 0.0 | 2.0 | 0.00 | 0.00 | 0.05 | 86 | 745.0 |
| 20260505005700 | 40 | 115 | 7.0 | 8.0 | 0.00 | 0.00 | 0.05 | 85 | 745.0 |
| 20260505005200 | 40 | 240 | 2.0 | 3.0 | 0.00 | 0.00 | 0.05 | 86 | 744.0 |
| 20260505004658 | 41 | 217 | 0.0 | 0.0 | 0.00 | 0.00 | 0.05 | 87 | 745.0 |
| 20260505004158 | 40 | 243 | 0.0 | 0.0 | 0.00 | 0.00 | 0.05 | 87 | 745.0 |
| 20260505003658 | 40 | 48 | 0.0 | 1.0 | 0.00 | 0.00 | 0.05 | 87 | 745.0 |
| 20260505003159 | 41 | 197 | 0.0 | 1.0 | 0.00 | 0.00 | 0.05 | 87 | 745.0 |
| 20260505002658 | 40 | 210 | 0.0 | 2.0 | 0.00 | 0.00 | 0.05 | 87 | 745.0 |
| 20260505002158 | 40 | 35 | 2.0 | 3.0 | 0.00 | 0.00 | 0.05 | 87 | 745.0 |
| 20260505001658 | 40 | 21 | 1.0 | 6.0 | 0.00 | 0.00 | 0.05 | 86 | 745.0 |
| 20260505001158 | 40 | 6 | 3.0 | 7.0 | 0.00 | 0.00 | 0.05 | 86 | 745.0 |
| 20260505000658 | 40 | 8 | 6.0 | 9.0 | 0.05 | 0.00 | 0.05 | 84 | 745.0 |
| 20260505000158 | 40 | 301 | 3.0 | 7.0 | 0.00 | 0.00 | 0.04 | 83 | 745.0 |
| 20260504235658 | 40 | 299 | 5.0 | 8.0 | 0.00 | 0.00 | 0.04 | 82 | 745.0 |
| 20260504235158 | 41 | 255 | 5.0 | 7.0 | 0.00 | 0.00 | 0.04 | 82 | 745.0 |
| 20260504234658 | 41 | 350 | 2.0 | 2.0 | 0.00 | 0.00 | 0.04 | 80 | 745.0 |
| 20260504234158 | 42 | 330 | 5.0 | 7.0 | 0.07 | 0.00 | 0.04 | 78 | 745.0 |
| 20260504233658 | 41 | 343 | 11.0 | 16.0 | 0.19 | 0.00 | 0.04 | 79 | 745.0 |
| 20260504233158 | 41 | 28 | 7.0 | 10.0 | 0.07 | 0.00 | 0.02 | 78 | 745.0 |
| 20260504232658 | 42 | 67 | 5.0 | 8.0 | 0.05 | 0.00 | 0.01 | 74 | 744.0 |
| 20260504232158 | 44 | 359 | 3.0 | 8.0 | 0.05 | 0.00 | 0.01 | 70 | 744.0 |
| 20260504231658 | 45 | 350 | 5.0 | 11.0 | 0.00 | 0.00 | 0.00 | 63 | 744.0 |
| 20260504231158 | 47 | 48 | 5.0 | 11.0 | 0.00 | 0.00 | 0.00 | 57 | 744.0 |
| 20260504230658 | 48 | 348 | 8.0 | 11.0 | 0.00 | 0.00 | 0.00 | 52 | 744.0 |
| 20260504230159 | 51 | 39 | 10.0 | 15.0 | 0.00 | 0.00 | 0.00 | 45 | 743.0 |
| 20260504225659 | 52 | 73 | 6.0 | 13.0 | 0.00 | 0.00 | 0.00 | 41 | 743.0 |
| 20260504225159 | 52 | 117 | 11.0 | 15.0 | 0.00 | 0.00 | 0.00 | 41 | 743.0 |
| 20260504224658 | 53 | 43 | 3.0 | 11.0 | 0.00 | 0.00 | 0.00 | 42 | 743.0 |
| 20260504224158 | 53 | 48 | 8.0 | 10.0 | 0.00 | 0.00 | 0.00 | 40 | 743.0 |
| 20260504223658 | 53 | 16 | 3.0 | 6.0 | 0.00 | 0.00 | 0.00 | 40 | 743.0 |
| 20260504223159 | 53 | 160 | 3.0 | 5.0 | 0.00 | 0.00 | 0.00 | 40 | 743.0 |
| 20260504222658 | 53 | 109 | 5.0 | 8.0 | 0.00 | 0.00 | 0.00 | 40 | 743.0 |
| 20260504222159 | 54 | 87 | 8.0 | 14.0 | 0.00 | 0.00 | 0.00 | 39 | 743.0 |
| 20260504221659 | 53 | 132 | 3.0 | 7.0 | 0.00 | 0.00 | 0.00 | 40 | 743.0 |
| 20260504221158 | 53 | 168 | 6.0 | 7.0 | 0.00 | 0.00 | 0.00 | 40 | 743.0 |
| 20260504220658 | 53 | 157 | 5.0 | 10.0 | 0.00 | 0.00 | 0.00 | 40 | 743.0 |
| 20260504220159 | 53 | 133 | 8.0 | 10.0 | 0.00 | 0.00 | 0.00 | 40 | 743.0 |
| 20260504215700 | 54 | 124 | 5.0 | 9.0 | 0.00 | 0.00 | 0.00 | 41 | 744.0 |
| 20260504215158 | 55 | 88 | 1.0 | 2.0 | 0.00 | 0.00 | 0.00 | 40 | 743.0 |
| 20260504214658 | 55 | 138 | 2.0 | 3.0 | 0.00 | 0.00 | 0.00 | 38 | 743.0 |
| 20260504214158 | 55 | 158 | 5.0 | 7.0 | 0.00 | 0.00 | 0.00 | 39 | 743.0 |
| 20260504213658 | 54 | 176 | 5.0 | 11.0 | 0.00 | 0.00 | 0.00 | 41 | 744.0 |
| 20260504213158 | 54 | 162 | 4.0 | 6.0 | 0.00 | 0.00 | 0.00 | 41 | 744.0 |
| 20260504212659 | 53 | 175 | 5.0 | 9.0 | 0.00 | 0.00 | 0.00 | 41 | 744.0 |
| 20260504212200 | 52 | 107 | 10.0 | 13.0 | 0.00 | 0.00 | 0.00 | 42 | 744.0 |
| 20260504211658 | 53 | 118 | 4.0 | 9.0 | 0.00 | 0.00 | 0.00 | 41 | 744.0 |
| 20260504211159 | 53 | 122 | 6.0 | 9.0 | 0.00 | 0.00 | 0.00 | 41 | 744.0 |
| 20260504210658 | 54 | 113 | 6.0 | 10.0 | 0.00 | 0.00 | 0.00 | 42 | 743.0 |
| 20260504210158 | 54 | 265 | 3.0 | 7.0 | 0.00 | 0.00 | 0.00 | 40 | 743.0 |
| 20260504205658 | 54 | 73 | 8.0 | 10.0 | 0.00 | 0.00 | 0.00 | 39 | 743.0 |
| 20260504205158 | 54 | 79 | 10.0 | 13.0 | 0.00 | 0.00 | 0.00 | 39 | 744.0 |
| 20260504204658 | 54 | 78 | 4.0 | 9.0 | 0.00 | 0.00 | 0.00 | 40 | 744.0 |
| 20260504204158 | 55 | 72 | 2.0 | 7.0 | 0.00 | 0.00 | 0.00 | 37 | 744.0 |
| 20260504203659 | 54 | 56 | 3.0 | 3.0 | 0.00 | 0.00 | 0.00 | 36 | 744.0 |
| 20260504203159 | 54 | 35 | 2.0 | 9.0 | 0.00 | 0.00 | 0.00 | 39 | 744.0 |
| 20260504202658 | 56 | 36 | 6.0 | 10.0 | 0.00 | 0.00 | 0.00 | 38 | 744.0 |
| 20260504202203 | 54 | 126 | 1.0 | 8.0 | 0.00 | 0.00 | 0.00 | 40 | 744.0 |
| 20260504201658 | 54 | 127 | 6.0 | 13.0 | 0.00 | 0.00 | 0.00 | 37 | 744.0 |
| 20260504201158 | 55 | 45 | 3.0 | 11.0 | 0.00 | 0.00 | 0.00 | 38 | 744.0 |
| 20260504200658 | 54 | 15 | 8.0 | 13.0 | 0.00 | 0.00 | 0.00 | 40 | 744.0 |
| 20260504200158 | 54 | 31 | 11.0 | 16.0 | 0.00 | 0.00 | 0.00 | 38 | 744.0 |
| 20260504195659 | 54 | 31 | 8.0 | 16.0 | 0.00 | 0.00 | 0.00 | 39 | 744.0 |
| 20260504195158 | 53 | 29 | 9.0 | 20.0 | 0.00 | 0.00 | 0.00 | 39 | 744.0 |
| 20260504194659 | 58 | 22 | 6.0 | 9.0 | 0.00 | 0.00 | 0.00 | 34 | 744.0 |
| 20260504194200 | 56 | 228 | 2.0 | 7.0 | 0.00 | 0.00 | 0.00 | 31 | 744.0 |
| 20260504193658 | 56 | 280 | 6.0 | 15.0 | 0.00 | 0.00 | 0.00 | 32 | 744.0 |
| 20260504193159 | 56 | 198 | 4.0 | 6.0 | 0.00 | 0.00 | 0.00 | 29 | 744.0 |
| 20260504192659 | 58 | 209 | 8.0 | 10.0 | 0.00 | 0.00 | 0.00 | 29 | 744.0 |
| 20260504192158 | 57 | 202 | 1.0 | 6.0 | 0.00 | 0.00 | 0.00 | 28 | 744.0 |
| 20260504191658 | 60 | 249 | 12.0 | 14.0 | 0.00 | 0.00 | 0.00 | 27 | 744.0 |
| 20260504191159 | 57 | 251 | 9.0 | 10.0 | 0.00 | 0.00 | 0.00 | 29 | 744.0 |
| 20260504190658 | 57 | 228 | 10.0 | 13.0 | 0.00 | 0.00 | 0.00 | 31 | 744.0 |
| 20260504190159 | 58 | 210 | 8.0 | 10.0 | 0.00 | 0.00 | 0.00 | 31 | 744.0 |
| 20260504185701 | 57 | 251 | 9.0 | 13.0 | 0.00 | 0.00 | 0.00 | 31 | 744.0 |
| 20260504185159 | 57 | 311 | 7.0 | 8.0 | 0.00 | 0.00 | 0.00 | 32 | 744.0 |
| 20260504184658 | 56 | 210 | 5.0 | 10.0 | 0.00 | 0.00 | 0.00 | 33 | 744.0 |
| 20260504184158 | 52 | 259 | 6.0 | 13.0 | 0.00 | 0.00 | 0.00 | 37 | 744.0 |
| 20260504183658 | 53 | 233 | 11.0 | 13.0 | 0.00 | 0.00 | 0.00 | 36 | 744.0 |
| 20260504183159 | 54 | 225 | 12.0 | 15.0 | 0.00 | 0.00 | 0.00 | 34 | 744.0 |
| 20260504182659 | 58 | 258 | 5.0 | 10.0 | 0.00 | 0.00 | 0.00 | 28 | 744.0 |
| 20260504182202 | 58 | 293 | 7.0 | 10.0 | 0.00 | 0.00 | 0.00 | 29 | 744.0 |
| 20260504181659 | 57 | 231 | 8.0 | 11.0 | 0.00 | 0.00 | 0.00 | 26 | 744.0 |
| 20260504181158 | 59 | 293 | 2.0 | 17.0 | 0.00 | 0.00 | 0.00 | 27 | 744.0 |
| 20260504180658 | 58 | 308 | 2.0 | 8.0 | 0.00 | 0.00 | 0.00 | 28 | 744.0 |
| 20260504180158 | 56 | 133 | 5.0 | 7.0 | 0.00 | 0.00 | 0.00 | 29 | 744.0 |
| 20260504175659 | 56 | 198 | 4.0 | 9.0 | 0.00 | 0.00 | 0.00 | 29 | 744.0 |
| 20260504175159 | 53 | 278 | 3.0 | 5.0 | 0.00 | 0.00 | 0.00 | 33 | 745.0 |
| 20260504174659 | 51 | 232 | 3.0 | 5.0 | 0.00 | 0.00 | 0.00 | 36 | 745.0 |
| 20260504174159 | 52 | 206 | 2.0 | 10.0 | 0.00 | 0.00 | 0.00 | 37 | 745.0 |
| 20260504173659 | 53 | 234 | 6.0 | 14.0 | 0.00 | 0.00 | 0.00 | 34 | 745.0 |
| 20260504173158 | 54 | 279 | 5.0 | 13.0 | 0.00 | 0.00 | 0.00 | 32 | 745.0 |
| 20260504172658 | 54 | 247 | 8.0 | 10.0 | 0.00 | 0.00 | 0.00 | 32 | 745.0 |
| 20260504172158 | 54 | 208 | 8.0 | 11.0 | 0.00 | 0.00 | 0.00 | 33 | 745.0 |
| 20260504171658 | 54 | 210 | 11.0 | 15.0 | 0.00 | 0.00 | 0.00 | 33 | 745.0 |
| 20260504171200 | 53 | 214 | 9.0 | 14.0 | 0.00 | 0.00 | 0.00 | 33 | 745.0 |
| 20260504170701 | 53 | 203 | 9.0 | 10.0 | 0.00 | 0.00 | 0.00 | 33 | 745.0 |
| 20260504170159 | 53 | 253 | 5.0 | 9.0 | 0.00 | 0.00 | 0.00 | 33 | 745.0 |
| 20260504160158 | 53 | 270 | 6.0 | 11.0 | 0.00 | 0.00 | 0.00 | 37 | 745.0 |
| 20260504150658 | 50 | 354 | 6.0 | 10.0 | 0.00 | 0.00 | 0.00 | 37 | 746.0 |
| 20260504150200 | 50 | 245 | 8.0 | 11.0 | 0.00 | 0.00 | 0.00 | 37 | 746.0 |
| 20260504141159 | 46 | 227 | 3.0 | 8.0 | 0.00 | 0.00 | 0.00 | 42 | 746.0 |
| 20260504140658 | 46 | 228 | 3.0 | 9.0 | 0.00 | 0.00 | 0.00 | 42 | 746.0 |
| 20260504140159 | 46 | 217 | 2.0 | 6.0 | 0.00 | 0.00 | 0.00 | 43 | 746.0 |
| 20260504130659 | 39 | 221 | 3.0 | 5.0 | 0.00 | 0.00 | 0.00 | 49 | 746.0 |
| 20260504130159 | 38 | 225 | 4.0 | 5.0 | 0.00 | 0.00 | 0.00 | 50 | 746.0 |
| 20260504110658 | 42 | 225 | 5.0 | 6.0 | 0.00 | 0.00 | 0.00 | 43 | 745.0 |
| 20260504110158 | 41 | 207 | 5.0 | 6.0 | 0.00 | 0.00 | 0.00 | 44 | 746.0 |
| 20260504100159 | 39 | 218 | 5.0 | 6.0 | 0.00 | 0.00 | 0.00 | 49 | 746.0 |
| 20260504081700 | 40 | 218 | 2.0 | 3.0 | 0.00 | 0.00 | 0.00 | 48 | 746.0 |
| 20260504081158 | 38 | 227 | 4.0 | 5.0 | 0.00 | 0.00 | 0.00 | 51 | 746.0 |
| 20260504080658 | 37 | 225 | 5.0 | 6.0 | 0.00 | 0.00 | 0.00 | 53 | 746.0 |
| 20260504080158 | 37 | 217 | 5.0 | 7.0 | 0.00 | 0.00 | 0.00 | 54 | 746.0 |
| 20260504070158 | 40 | 233 | 5.0 | 6.0 | 0.00 | 0.00 | 0.00 | 50 | 747.0 |
| 20260504060159 | 41 | 227 | 0.0 | 0.0 | 0.00 | 0.00 | 0.00 | 49 | 747.0 |
| 20260504050658 | 44 | 221 | 0.0 | 0.0 | 0.00 | 0.00 | 0.00 | 42 | 748.0 |
| 20260504050158 | 44 | 209 | 0.0 | 0.0 | 0.00 | 0.00 | 0.00 | 42 | 747.0 |
| 20260504045659 | 44 | 219 | 0.0 | 0.0 | 0.00 | 0.00 | 0.00 | 43 | 747.0 |
| 20260504045158 | 44 | 219 | 0.0 | 0.0 | 0.00 | 0.00 | 0.00 | 44 | 747.0 |
| 20260504044658 | 44 | 219 | 0.0 | 0.0 | 0.00 | 0.00 | 0.00 | 43 | 748.0 |
| 20260504044159 | 45 | 223 | 0.0 | 0.0 | 0.00 | 0.00 | 0.00 | 43 | 748.0 |
| 20260504043659 | 46 | 217 | 0.0 | 0.0 | 0.00 | 0.00 | 0.00 | 41 | 748.0 |
| 20260504043158 | 46 | 196 | 1.0 | 2.0 | 0.00 | 0.00 | 0.00 | 39 | 748.0 |
| 20260504042658 | 46 | 220 | 0.0 | 0.0 | 0.00 | 0.00 | 0.00 | 39 | 748.0 |
| 20260504042158 | 47 | 225 | 0.0 | 0.0 | 0.00 | 0.00 | 0.00 | 38 | 747.0 |
| 20260504041658 | 48 | 198 | 0.0 | 0.0 | 0.00 | 0.00 | 0.00 | 36 | 748.0 |
| 20260504041159 | 48 | 221 | 0.0 | 0.0 | 0.00 | 0.00 | 0.00 | 36 | 748.0 |
| 20260504040658 | 48 | 234 | 0.0 | 0.0 | 0.00 | 0.00 | 0.00 | 36 | 748.0 |
| 20260504040158 | 48 | 219 | 0.0 | 0.0 | 0.00 | 0.00 | 0.00 | 35 | 748.0 |
| 20260504035658 | 49 | 233 | 0.0 | 0.0 | 0.00 | 0.00 | 0.00 | 35 | 748.0 |
| 20260504035158 | 48 | 232 | 0.0 | 0.0 | 0.00 | 0.00 | 0.00 | 35 | 748.0 |
| 20260504034658 | 48 | 221 | 0.0 | 0.0 | 0.00 | 0.00 | 0.00 | 35 | 748.0 |
| 20260504034158 | 49 | 229 | 0.0 | 0.0 | 0.00 | 0.00 | 0.00 | 35 | 748.0 |
| 20260504033658 | 49 | 233 | 5.0 | 7.0 | 0.00 | 0.00 | 0.00 | 34 | 748.0 |
| 20260504033159 | 49 | 217 | 4.0 | 5.0 | 0.00 | 0.00 | 0.00 | 35 | 748.0 |
| 20260504032659 | 49 | 200 | 0.0 | 0.0 | 0.00 | 0.00 | 0.00 | 34 | 748.0 |
| 20260504032158 | 49 | 230 | 0.0 | 0.0 | 0.00 | 0.00 | 0.00 | 33 | 748.0 |
| 20260504031658 | 49 | 209 | 0.0 | 0.0 | 0.00 | 0.00 | 0.00 | 34 | 748.0 |
| 20260504031158 | 49 | 224 | 0.0 | 0.0 | 0.00 | 0.00 | 0.00 | 34 | 748.0 |
| 20260504030658 | 49 | 200 | 0.0 | 0.0 | 0.00 | 0.00 | 0.00 | 34 | 748.0 |
| 20260504030158 | 49 | 147 | 3.0 | 3.0 | 0.00 | 0.00 | 0.00 | 33 | 748.0 |
| 20260504025658 | 49 | 113 | 2.0 | 2.0 | 0.00 | 0.00 | 0.00 | 34 | 748.0 |
| 20260504025158 | 49 | 150 | 0.0 | 0.0 | 0.00 | 0.00 | 0.00 | 34 | 748.0 |
| 20260504024658 | 50 | 207 | 0.0 | 0.0 | 0.00 | 0.00 | 0.00 | 32 | 747.0 |
| 20260504024158 | 50 | 264 | 0.0 | 0.0 | 0.00 | 0.00 | 0.00 | 32 | 748.0 |
| 20260504023701 | 51 | 247 | 0.0 | 0.0 | 0.00 | 0.00 | 0.00 | 31 | 747.0 |
| 20260504023158 | 51 | 290 | 0.0 | 5.0 | 0.00 | 0.00 | 0.00 | 31 | 747.0 |